Time;durP1;ratioP1;P1;durP2;ratioP2;P2;SDS_P1;SDS_P2;PMS_P1;PMS_P2;Temp;Humidity;BMP_temperature;BMP_pressure;BME280_temperature;BME280_humidity;BME280_pressure;Samples;Min_cycle;Max_cycle;Signal;HPM_P1;HPM_P2
2021/10/14 00:00:38;;;;;;;14.28;12.86;;;;;;;14.68;78.27;100136.80;462341;112;922677;-74
2021/10/14 00:01:42;;;;;;;13.87;12.71;;;;;;;14.67;78.21;100134.30;461925;112;923231;-74
2021/10/14 00:02:45;;;;;;;13.81;12.58;;;;;;;14.66;78.17;100138.98;461941;112;922508;-74
2021/10/14 00:03:48;;;;;;;13.99;12.92;;;;;;;14.65;78.15;100137.31;461933;112;930362;-75
2021/10/14 00:04:53;;;;;;;14.11;12.93;;;;;;;14.64;78.13;100138.39;461145;112;930345;-75
2021/10/14 00:05:56;;;;;;;14.48;13.28;;;;;;;14.64;78.08;100135.65;461894;112;922396;-74
2021/10/14 00:07:00;;;;;;;15.26;14.05;;;;;;;14.63;78.08;100139.47;462224;113;922788;-74
2021/10/14 00:08:03;;;;;;;15.66;14.02;;;;;;;14.61;78.04;100138.87;461651;112;922507;-73
2021/10/14 00:09:07;;;;;;;15.39;13.69;;;;;;;14.61;78.00;100138.87;461202;113;923077;-74
2021/10/14 00:10:10;;;;;;;16.77;14.53;;;;;;;14.60;78.09;100143.56;445174;116;922863;-74
2021/10/14 00:11:14;;;;;;;17.44;14.23;;;;;;;14.59;78.11;100132.84;461248;112;923070;-73
2021/10/14 00:12:17;;;;;;;15.71;14.14;;;;;;;14.59;78.19;100146.55;461482;112;922745;-73
2021/10/14 00:13:20;;;;;;;17.23;15.07;;;;;;;14.59;78.23;100139.16;460978;112;922831;-73
2021/10/14 00:14:24;;;;;;;17.31;14.81;;;;;;;14.58;78.19;100148.46;455459;114;924719;-72
2021/10/14 00:15:28;;;;;;;15.45;14.05;;;;;;;14.59;78.26;100135.58;458211;113;923174;-73
2021/10/14 00:16:33;;;;;;;16.98;15.42;;;;;;;14.59;78.33;100132.84;460878;112;923296;-73
2021/10/14 00:17:36;;;;;;;16.33;14.76;;;;;;;14.61;78.39;100139.71;462494;112;930669;-72
2021/10/14 00:18:39;;;;;;;14.99;13.67;;;;;;;14.63;78.32;100127.66;463270;112;922556;-74
2021/10/14 00:19:43;;;;;;;15.66;14.02;;;;;;;14.64;78.31;100130.16;461421;112;922616;-74
2021/10/14 00:20:46;;;;;;;16.54;15.18;;;;;;;14.65;78.30;100128.25;461515;112;922600;-74
2021/10/14 00:21:50;;;;;;;15.44;14.20;;;;;;;14.65;78.21;100131.00;462140;113;930522;-74
2021/10/14 00:22:53;;;;;;;17.48;15.54;;;;;;;14.66;78.22;100133.50;462288;113;923136;-73
2021/10/14 00:23:57;;;;;;;27.56;14.81;;;;;;;14.66;78.20;100128.01;462738;112;922685;-74
2021/10/14 00:25:00;;;;;;;16.52;15.14;;;;;;;14.67;78.17;100137.04;461823;112;930931;-74
2021/10/14 00:26:04;;;;;;;16.84;14.47;;;;;;;14.67;78.12;100137.04;460959;112;930615;-74
2021/10/14 00:27:08;;;;;;;16.72;14.91;;;;;;;14.66;78.05;100133.50;461260;113;930508;-74
2021/10/14 00:28:11;;;;;;;16.48;14.88;;;;;;;14.65;78.06;100141.97;462055;112;923189;-74
2021/10/14 00:29:15;;;;;;;16.40;14.83;;;;;;;14.65;78.05;100133.73;461459;113;922567;-74
2021/10/14 00:30:19;;;;;;;25.46;15.88;;;;;;;14.66;78.10;100138.15;460898;113;922567;-74
2021/10/14 00:31:22;;;;;;;17.50;15.00;;;;;;;14.67;78.17;100134.30;461337;113;931110;-73
2021/10/14 00:32:26;;;;;;;15.91;14.68;;;;;;;14.67;78.17;100128.81;461454;112;922436;-74
2021/10/14 00:33:29;;;;;;;16.61;15.29;;;;;;;14.69;78.18;100134.89;461065;112;923467;-73
2021/10/14 00:34:32;;;;;;;15.90;14.42;;;;;;;14.69;78.07;100132.98;461470;112;923579;-75
2021/10/14 00:35:36;;;;;;;16.27;14.86;;;;;;;14.69;78.03;100130.23;460894;113;922464;-74
2021/10/14 00:36:40;;;;;;;15.01;13.52;;;;;;;14.69;78.03;100127.48;462359;113;922470;-74
2021/10/14 00:37:43;;;;;;;16.07;14.60;;;;;;;14.70;78.07;100126.41;462125;113;923592;-73
2021/10/14 00:38:47;;;;;;;16.34;14.68;;;;;;;14.71;78.07;100129.98;463381;112;922628;-73
2021/10/14 00:39:50;;;;;;;16.39;14.56;;;;;;;14.72;78.10;100131.66;462940;113;930386;-74
2021/10/14 00:40:54;;;;;;;16.36;14.40;;;;;;;14.73;77.99;100125.06;462085;112;922700;-74
2021/10/14 00:41:57;;;;;;;15.68;14.33;;;;;;;14.73;77.88;100133.29;462056;112;930831;-73
2021/10/14 00:43:00;;;;;;;15.36;13.96;;;;;;;14.72;77.75;100142.63;462266;112;930527;-74
2021/10/14 00:44:04;;;;;;;16.61;14.90;;;;;;;14.70;77.66;100136.55;462192;112;923206;-73
2021/10/14 00:45:08;;;;;;;16.81;15.07;;;;;;;14.69;77.66;100134.89;462131;112;922465;-73
2021/10/14 00:46:16;;;;;;;15.88;13.57;;;;;;;14.68;77.66;100136.80;461775;112;922584;-74
2021/10/14 00:47:22;;;;;;;15.83;13.39;;;;;;;14.68;77.74;100135.97;461785;112;922565;-73
2021/10/14 00:48:25;;;;;;;16.53;14.31;;;;;;;14.67;77.79;100134.30;454986;115;922597;-73
2021/10/14 00:49:29;;;;;;;15.95;14.26;;;;;;;14.67;77.86;100129.64;456234;112;923445;-73
2021/10/14 00:50:32;;;;;;;16.26;14.71;;;;;;;14.67;77.88;100132.39;461318;113;922625;-73
2021/10/14 00:51:35;;;;;;;16.48;14.97;;;;;;;14.68;77.86;100130.48;461781;112;922701;-73
2021/10/14 00:52:41;;;;;;;15.75;14.31;;;;;;;14.68;77.89;100134.05;461620;113;922612;-73
2021/10/14 00:53:46;;;;;;;15.07;13.73;;;;;;;14.68;77.98;100136.80;461731;112;922733;-74
2021/10/14 00:54:51;;;;;;;18.54;15.28;;;;;;;14.70;77.98;100131.06;461006;112;922453;-73
2021/10/14 00:55:55;;;;;;;16.64;14.98;;;;;;;14.70;77.89;100133.81;461040;112;922954;-73
2021/10/14 00:57:00;;;;;;;15.56;14.16;;;;;;;14.70;77.87;100136.55;460173;112;923064;-72
2021/10/14 00:58:03;;;;;;;16.65;15.17;;;;;;;14.70;77.93;100139.30;462032;112;922444;-74
2021/10/14 00:59:07;;;;;;;15.25;13.67;;;;;;;14.71;77.93;100140.97;462563;113;923984;-74
2021/10/14 01:00:12;;;;;;;16.49;14.90;;;;;;;14.71;77.96;100147.29;462473;113;923422;-74
2021/10/14 01:01:15;;;;;;;16.68;14.94;;;;;;;14.73;78.01;100142.36;461865;112;930548;-72
2021/10/14 01:02:19;;;;;;;18.01;15.60;;;;;;;14.73;78.05;100142.36;462225;112;922528;-72
2021/10/14 01:03:23;;;;;;;16.41;14.91;;;;;;;14.76;78.05;100143.78;462056;112;923864;-72
2021/10/14 01:04:27;;;;;;;16.48;14.79;;;;;;;14.77;78.07;100140.79;461831;113;922877;-73
2021/10/14 01:05:30;;;;;;;15.67;13.96;;;;;;;14.79;78.03;100143.27;461763;113;930801;-72
2021/10/14 01:06:34;;;;;;;16.47;15.01;;;;;;;14.82;78.02;100149.09;461334;112;930371;-72
2021/10/14 01:07:39;;;;;;;15.74;14.38;;;;;;;14.84;77.93;100140.58;461775;112;922774;-73
2021/10/14 01:08:42;;;;;;;18.26;15.26;;;;;;;14.85;77.85;100137.59;461670;113;922620;-73
2021/10/14 01:09:46;;;;;;;15.92;14.37;;;;;;;14.87;77.83;100151.91;461840;113;923070;-72
2021/10/14 01:10:50;;;;;;;16.31;14.57;;;;;;;14.89;77.76;100143.39;462088;112;922897;-71
2021/10/14 01:11:54;;;;;;;16.31;14.81;;;;;;;14.89;77.64;100155.21;461606;112;922526;-73
2021/10/14 01:12:58;;;;;;;16.54;14.75;;;;;;;14.89;77.55;100144.23;461152;113;922743;-71
2021/10/14 01:14:02;;;;;;;16.49;15.01;;;;;;;14.89;77.49;100148.88;461480;112;922636;-73
2021/10/14 01:15:21;;;;;;;15.48;13.78;;;;;;;14.89;77.49;100149.72;462093;112;923191;-74
2021/10/14 01:16:26;;;;;;;15.28;13.22;;;;;;;14.89;77.46;100146.14;461815;113;922450;-72
2021/10/14 01:17:29;;;;;;;17.59;15.02;;;;;;;14.88;77.44;100155.48;460713;113;922959;-73
2021/10/14 01:18:33;;;;;;;16.71;14.42;;;;;;;14.86;77.44;100144.75;460865;112;930605;-72
2021/10/14 01:19:41;;;;;;;16.51;14.87;;;;;;;14.86;77.49;100146.66;460918;113;922861;-72
2021/10/14 01:20:45;;;;;;;16.16;14.74;;;;;;;14.86;77.56;100150.23;462448;113;930531;-70
2021/10/14 01:21:50;;;;;;;16.38;14.98;;;;;;;14.86;77.58;100144.75;463298;112;922619;-72
2021/10/14 01:22:54;;;;;;;16.21;14.84;;;;;;;14.86;77.58;100155.73;461673;112;923096;-75
2021/10/14 01:23:59;;;;;;;16.87;15.28;;;;;;;14.87;77.54;100156.56;461958;113;923003;-72
2021/10/14 01:25:03;;;;;;;15.54;14.01;;;;;;;14.87;77.54;100157.39;461509;112;922558;-72
2021/10/14 01:26:07;;;;;;;19.13;16.69;;;;;;;14.87;77.52;100159.31;462178;112;922715;-73
2021/10/14 01:27:11;;;;;;;19.05;17.16;;;;;;;14.87;77.49;100153.82;462212;112;930467;-72
2021/10/14 01:28:15;;;;;;;20.22;18.18;;;;;;;14.86;77.38;100157.64;461384;112;930727;-72
2021/10/14 01:29:18;;;;;;;18.22;15.93;;;;;;;14.84;77.40;100163.38;461888;113;922637;-73
2021/10/14 01:30:22;;;;;;;15.22;13.79;;;;;;;14.84;77.42;100155.14;461464;113;923044;-72
2021/10/14 01:31:27;;;;;;;15.54;14.04;;;;;;;14.84;77.53;100162.54;461415;112;923857;-72
2021/10/14 01:32:31;;;;;;;16.56;14.88;;;;;;;14.86;77.61;100152.15;461997;113;923130;-73
2021/10/14 01:33:34;;;;;;;17.33;15.70;;;;;;;14.88;77.63;100158.23;461300;112;922715;-73
2021/10/14 01:34:38;;;;;;;16.63;15.01;;;;;;;14.90;77.53;100161.53;461534;113;922789;-73
2021/10/14 01:35:41;;;;;;;16.63;15.28;;;;;;;14.89;77.43;100155.21;461332;112;923358;-71
2021/10/14 01:36:45;;;;;;;17.44;15.88;;;;;;;14.90;77.36;100161.53;461515;112;923054;-73
2021/10/14 01:37:48;;;;;;;17.11;15.06;;;;;;;14.88;77.36;100153.58;452364;114;922792;-73
2021/10/14 01:38:52;;;;;;;16.87;14.73;;;;;;;14.88;77.38;100158.23;452371;113;930606;-71
2021/10/14 01:39:56;;;;;;;16.71;15.27;;;;;;;14.88;77.46;100163.72;461334;112;922853;-71
2021/10/14 01:41:00;;;;;;;16.87;15.26;;;;;;;14.87;77.54;100157.39;460049;112;922543;-72
2021/10/14 01:42:04;;;;;;;16.62;15.01;;;;;;;14.89;77.61;100159.87;460467;112;922561;-72
2021/10/14 01:43:11;;;;;;;16.91;15.41;;;;;;;14.91;77.62;100160.45;460442;113;922536;-72
2021/10/14 01:44:21;;;;;;;16.52;15.07;;;;;;;15.04;77.60;100154.61;461753;110;947215;-72
2021/10/14 01:45:24;;;;;;;17.37;15.72;;;;;;;14.93;77.55;100152.81;454850;114;922568;-72
2021/10/14 01:46:29;;;;;;;17.58;15.66;;;;;;;14.94;77.57;100148.98;451688;113;923432;-71
2021/10/14 01:47:35;;;;;;;17.11;15.45;;;;;;;14.95;77.61;100151.45;451154;115;922602;-73
2021/10/14 01:48:38;;;;;;;17.12;15.57;;;;;;;14.97;77.58;100148.46;452372;114;922868;-73
2021/10/14 01:49:41;;;;;;;16.87;15.39;;;;;;;14.98;77.51;100158.37;451951;116;922933;-70
2021/10/14 01:50:45;;;;;;;16.49;14.91;;;;;;;14.99;77.48;100151.80;452395;114;922742;-72
2021/10/14 01:51:48;;;;;;;17.02;15.57;;;;;;;15.00;77.48;100156.17;451866;115;922731;-71
2021/10/14 01:52:52;;;;;;;16.12;14.61;;;;;;;15.00;77.50;100157.01;453859;115;930647;-73
2021/10/14 01:53:55;;;;;;;16.39;14.79;;;;;;;15.02;77.44;100156.77;454097;114;928575;-73
2021/10/14 01:54:59;;;;;;;15.89;14.39;;;;;;;15.02;77.34;100163.09;452521;114;923093;-71
2021/10/14 01:56:03;;;;;;;17.35;15.64;;;;;;;15.03;77.29;100161.17;454595;114;922911;-72
2021/10/14 01:57:06;;;;;;;17.94;16.11;;;;;;;15.04;77.28;100168.34;454390;115;922721;-74
2021/10/14 01:58:10;;;;;;;17.42;15.89;;;;;;;15.04;77.23;100171.08;454268;113;923195;-73
2021/10/14 01:59:13;;;;;;;19.39;17.36;;;;;;;15.02;77.14;100167.75;454599;114;923198;-71
2021/10/14 02:00:18;;;;;;;18.35;16.64;;;;;;;15.01;77.10;100168.83;454888;113;922498;-72
2021/10/14 02:01:21;;;;;;;19.29;17.41;;;;;;;15.00;77.12;100170.73;455394;113;922623;-73
2021/10/14 02:02:25;;;;;;;18.99;16.96;;;;;;;15.01;77.14;100171.57;454972;113;922508;-73
2021/10/14 02:03:28;;;;;;;19.52;17.84;;;;;;;15.00;77.08;100170.73;454702;114;930575;-72
2021/10/14 02:04:32;;;;;;;20.04;18.01;;;;;;;15.02;77.03;100170.49;455404;114;922717;-72
2021/10/14 02:05:35;;;;;;;21.32;18.89;;;;;;;15.02;76.99;100165.00;454969;113;923101;-72
2021/10/14 02:06:39;;;;;;;21.09;18.94;;;;;;;15.00;76.63;100156.17;453109;113;922523;-72
2021/10/14 02:07:42;;;;;;;24.49;19.26;;;;;;;15.00;76.63;100156.17;452034;116;930681;-70
2021/10/14 02:08:45;;;;;;;20.85;18.41;;;;;;;15.02;76.88;100165.00;452196;113;923299;-72
2021/10/14 02:09:49;;;;;;;21.86;19.26;;;;;;;15.01;76.89;100160.59;454346;113;922461;-73
2021/10/14 02:10:53;;;;;;;22.51;19.64;;;;;;;15.02;76.89;100151.27;452461;113;922730;-73
2021/10/14 02:11:57;;;;;;;20.13;18.17;;;;;;;15.03;76.86;100150.20;451511;116;922738;-73
2021/10/14 02:13:00;;;;;;;21.17;18.94;;;;;;;15.02;76.79;100148.53;452677;115;923114;-72
2021/10/14 02:14:04;;;;;;;20.46;18.16;;;;;;;15.02;76.71;100154.02;452696;114;922686;-73
2021/10/14 02:15:08;;;;;;;22.52;19.77;;;;;;;15.02;76.66;100154.02;452520;113;922590;-73
2021/10/14 02:16:12;;;;;;;21.98;19.31;;;;;;;15.01;76.67;100155.09;452783;115;930558;-73
2021/10/14 02:17:15;;;;;;;21.96;19.24;;;;;;;14.99;76.64;100149.05;453547;114;922606;-72
2021/10/14 02:18:19;;;;;;;21.93;19.87;;;;;;;14.97;76.57;100154.78;454393;114;930775;-74
2021/10/14 02:19:22;;;;;;;22.14;20.06;;;;;;;14.95;76.54;100148.70;454292;113;922883;-73
2021/10/14 02:20:26;;;;;;;23.26;20.17;;;;;;;14.93;76.49;100141.83;453848;116;922592;-73
2021/10/14 02:21:29;;;;;;;22.77;19.64;;;;;;;14.90;76.48;100150.55;454543;113;922554;-72
2021/10/14 02:22:33;;;;;;;21.59;19.21;;;;;;;14.87;76.47;100156.56;454827;114;930933;-73
2021/10/14 02:23:36;;;;;;;20.82;18.94;;;;;;;14.83;76.51;100158.97;454798;113;922498;-72
2021/10/14 02:24:41;;;;;;;24.48;19.53;;;;;;;14.80;76.57;100164.14;455164;114;930595;-73
2021/10/14 02:25:44;;;;;;;21.23;18.94;;;;;;;14.78;76.66;100160.80;456116;114;923001;-75
2021/10/14 02:26:49;;;;;;;21.52;17.93;;;;;;;14.77;76.71;100164.66;455462;115;922615;-72
2021/10/14 02:27:53;;;;;;;20.31;18.01;;;;;;;14.76;76.85;100160.25;455645;114;923035;-73
2021/10/14 02:28:56;;;;;;;19.60;17.55;;;;;;;14.77;76.91;100170.15;453718;113;923161;-73
2021/10/14 02:29:59;;;;;;;20.30;18.37;;;;;;;14.77;76.91;100164.66;453243;114;922520;-73
2021/10/14 02:31:02;;;;;;;22.27;16.37;;;;;;;14.77;76.94;100168.23;452567;113;922820;-73
2021/10/14 02:32:06;;;;;;;19.18;16.77;;;;;;;14.77;76.93;100162.75;451361;115;922607;-73
2021/10/14 02:33:10;;;;;;;19.54;17.67;;;;;;;14.75;76.98;100162.16;451017;114;930520;-70
2021/10/14 02:34:13;;;;;;;17.38;15.60;;;;;;;14.77;76.91;100170.15;453996;113;923099;-73
2021/10/14 02:35:17;;;;;;;17.27;15.75;;;;;;;14.79;77.01;100168.80;452803;115;923111;-72
2021/10/14 02:36:21;;;;;;;19.86;16.02;;;;;;;14.79;77.03;100165.22;451780;114;922755;-73
2021/10/14 02:37:25;;;;;;;18.37;16.50;;;;;;;14.81;77.00;100183.11;453640;113;922844;-71
2021/10/14 02:38:28;;;;;;;16.96;15.50;;;;;;;14.81;76.95;100174.05;454160;113;923223;-71
2021/10/14 02:39:32;;;;;;;17.86;16.19;;;;;;;14.79;76.95;100171.54;454748;114;922590;-69
2021/10/14 02:40:36;;;;;;;16.62;15.10;;;;;;;14.81;76.91;100171.30;453156;114;930717;-73
2021/10/14 02:41:39;;;;;;;15.81;14.33;;;;;;;14.79;76.99;100177.03;453903;114;930532;-73
2021/10/14 02:42:43;;;;;;;15.08;13.78;;;;;;;14.81;77.00;100174.05;455105;113;923271;-73
2021/10/14 02:43:46;;;;;;;14.50;13.09;;;;;;;14.81;77.08;100176.78;455135;114;922613;-72
2021/10/14 02:44:50;;;;;;;15.28;13.87;;;;;;;14.81;77.09;100180.36;454210;113;923248;-72
2021/10/14 02:45:53;;;;;;;14.87;13.57;;;;;;;14.83;77.08;100180.13;455702;116;923053;-72
2021/10/14 02:46:56;;;;;;;15.51;13.03;;;;;;;14.83;77.05;100178.17;455601;114;922984;-70
2021/10/14 02:48:00;;;;;;;14.23;12.80;;;;;;;14.83;77.04;100186.41;454971;114;922624;-74
2021/10/14 02:49:03;;;;;;;12.68;11.61;;;;;;;14.85;77.03;100186.17;455685;113;923131;-73
2021/10/14 02:50:07;;;;;;;13.97;12.44;;;;;;;14.85;77.04;100186.17;451490;116;930335;-71
2021/10/14 02:51:11;;;;;;;14.06;12.91;;;;;;;14.86;77.04;100185.09;454151;113;923331;-73
2021/10/14 02:52:14;;;;;;;13.23;12.00;;;;;;;14.87;76.99;100179.36;452783;114;922768;-73
2021/10/14 02:53:17;;;;;;;11.84;10.82;;;;;;;14.88;76.93;100194.75;452121;114;923115;-72
2021/10/14 02:54:21;;;;;;;12.18;11.08;;;;;;;14.88;76.86;100186.52;453220;114;922711;-73
2021/10/14 02:55:24;;;;;;;11.54;10.53;;;;;;;14.89;76.83;100187.31;451597;114;922564;-74
2021/10/14 02:56:28;;;;;;;12.11;10.77;;;;;;;14.89;76.82;100176.34;453784;114;922765;-72
2021/10/14 02:57:32;;;;;;;11.39;10.31;;;;;;;14.90;76.73;100191.73;451895;114;930241;-72
2021/10/14 02:58:35;;;;;;;11.81;10.77;;;;;;;14.89;76.75;100195.55;452537;114;922573;-72
2021/10/14 02:59:39;;;;;;;11.39;10.28;;;;;;;14.89;76.75;100195.55;454312;114;930306;-73
2021/10/14 03:00:42;;;;;;;11.66;10.61;;;;;;;14.88;76.52;100196.66;455359;114;923038;-72
2021/10/14 03:01:46;;;;;;;11.96;10.86;;;;;;;14.88;76.51;100196.66;454399;115;930528;-72
2021/10/14 03:02:49;;;;;;;12.39;10.55;;;;;;;14.85;76.45;100187.00;455027;114;930384;-74
2021/10/14 03:03:53;;;;;;;11.04;10.07;;;;;;;14.84;76.41;100189.98;455009;116;922946;-73
2021/10/14 03:04:56;;;;;;;10.86;9.78;;;;;;;14.82;76.40;100195.75;455580;114;930281;-71
2021/10/14 03:06:01;;;;;;;10.51;9.49;;;;;;;14.79;76.39;100189.92;454888;114;922529;-72
2021/10/14 03:07:04;;;;;;;10.77;9.83;;;;;;;14.77;76.40;100192.10;454924;113;930672;-74
2021/10/14 03:08:07;;;;;;;13.72;10.16;;;;;;;14.76;76.43;100182.20;455244;114;922603;-72
2021/10/14 03:09:11;;;;;;;10.34;9.34;;;;;;;14.74;76.44;100195.33;455255;113;922576;-73
2021/10/14 03:10:15;;;;;;;12.29;10.26;;;;;;;14.70;76.50;100192.27;456038;114;924543;-72
2021/10/14 03:11:19;;;;;;;10.72;9.29;;;;;;;14.69;76.57;100196.09;456091;116;923396;-72
2021/10/14 03:12:22;;;;;;;11.32;10.03;;;;;;;14.68;76.64;100193.59;452203;114;923236;-74
2021/10/14 03:13:25;;;;;;;10.30;9.32;;;;;;;14.67;76.72;100191.92;451758;114;922714;-73
2021/10/14 03:14:29;;;;;;;13.91;10.18;;;;;;;14.68;76.81;100197.17;451005;113;923075;-74
2021/10/14 03:15:32;;;;;;;11.55;9.98;;;;;;;14.68;76.88;100188.10;450334;114;930425;-74
2021/10/14 03:16:37;;;;;;;10.66;9.62;;;;;;;14.68;76.90;100188.10;452832;113;922898;-73
2021/10/14 03:17:40;;;;;;;13.32;9.63;;;;;;;14.69;76.88;100187.86;453150;115;922505;-71
2021/10/14 03:18:43;;;;;;;9.96;9.06;;;;;;;14.69;76.90;100192.52;453399;113;922580;-73
2021/10/14 03:19:46;;;;;;;11.29;9.53;;;;;;;14.70;76.93;100196.92;453550;113;922958;-73
2021/10/14 03:20:51;;;;;;;10.39;9.28;;;;;;;14.71;76.97;100196.69;453461;114;923192;-75
2021/10/14 03:21:55;;;;;;;10.81;9.75;;;;;;;14.73;76.95;100193.66;454106;113;923241;-72
2021/10/14 03:22:58;;;;;;;10.46;9.24;;;;;;;14.74;76.91;100195.33;454019;113;923125;-72
2021/10/14 03:24:01;;;;;;;9.71;8.79;;;;;;;14.74;76.87;100193.42;454277;113;923302;-74
2021/10/14 03:25:07;;;;;;;13.19;9.41;;;;;;;14.75;76.84;100191.52;454400;113;922993;-72
2021/10/14 03:26:12;;;;;;;10.29;9.30;;;;;;;14.74;76.82;100189.84;454000;114;930573;-73
2021/10/14 03:27:15;;;;;;;9.80;8.85;;;;;;;14.74;76.78;100198.91;454091;114;923546;-71
2021/10/14 03:28:19;;;;;;;10.06;9.26;;;;;;;14.73;76.76;100197.24;454488;113;923646;-71
2021/10/14 03:29:22;;;;;;;9.21;8.24;;;;;;;14.73;76.72;100193.66;455319;114;923066;-74
2021/10/14 03:30:26;;;;;;;10.04;9.14;;;;;;;14.71;76.72;100196.69;455724;114;930632;-73
2021/10/14 03:31:29;;;;;;;10.16;9.08;;;;;;;14.72;76.82;100203.80;455655;116;923217;-73
2021/10/14 03:32:33;;;;;;;10.07;8.89;;;;;;;14.72;76.82;100203.00;455681;113;922545;-74
2021/10/14 03:33:37;;;;;;;10.18;9.35;;;;;;;14.72;76.80;100200.27;456459;114;922838;-72
2021/10/14 03:34:40;;;;;;;10.98;9.56;;;;;;;14.72;76.78;100205.75;444850;116;922871;-72
2021/10/14 03:35:43;;;;;;;10.43;9.41;;;;;;;14.71;76.74;100206.83;443533;116;922622;-73
2021/10/14 03:36:47;;;;;;;11.09;10.11;;;;;;;14.70;76.75;100200.50;452456;114;923015;-69
2021/10/14 03:37:51;;;;;;;12.79;10.51;;;;;;;14.70;76.79;100208.73;453206;113;923019;-72
2021/10/14 03:38:54;;;;;;;11.23;9.47;;;;;;;14.70;76.79;100202.41;452377;115;922515;-71
2021/10/14 03:39:57;;;;;;;10.72;9.89;;;;;;;14.70;76.79;100199.67;451639;116;922549;-71
2021/10/14 03:41:01;;;;;;;11.18;10.26;;;;;;;14.70;76.82;100200.50;451613;116;923113;-71
2021/10/14 03:42:04;;;;;;;10.89;9.68;;;;;;;14.72;76.89;100203.00;452657;115;922669;-74
2021/10/14 03:43:08;;;;;;;11.12;10.04;;;;;;;14.74;76.92;100203.56;454160;114;922695;-73
2021/10/14 03:44:13;;;;;;;10.08;9.17;;;;;;;14.75;76.92;100202.48;452241;114;923039;-71
2021/10/14 03:45:17;;;;;;;12.67;9.78;;;;;;;14.77;76.85;100208.57;453798;113;923378;-71
2021/10/14 03:46:21;;;;;;;10.50;9.56;;;;;;;14.77;76.83;100212.15;453731;114;923865;-72
2021/10/14 03:47:25;;;;;;;10.06;9.08;;;;;;;14.77;76.77;100212.15;454687;114;923108;-72
2021/10/14 03:48:28;;;;;;;9.75;8.83;;;;;;;14.77;76.76;100209.41;454261;113;923331;-72
2021/10/14 03:49:32;;;;;;;10.45;9.43;;;;;;;14.79;76.77;100206.39;454935;114;928056;-72
2021/10/14 03:50:35;;;;;;;9.48;8.68;;;;;;;14.78;76.72;100211.04;455076;114;923172;-74
2021/10/14 03:51:38;;;;;;;9.88;8.83;;;;;;;14.78;76.67;100213.78;455199;114;930579;-71
2021/10/14 03:52:42;;;;;;;10.28;9.28;;;;;;;14.79;76.61;100217.36;455852;114;922742;-72
2021/10/14 03:53:45;;;;;;;10.34;9.21;;;;;;;14.79;76.65;100214.62;455774;114;923071;-72
2021/10/14 03:54:48;;;;;;;9.95;9.11;;;;;;;14.80;76.71;100214.38;455167;114;922595;-72
2021/10/14 03:55:53;;;;;;;11.05;9.66;;;;;;;14.81;76.74;100209.72;455428;113;923000;-73
2021/10/14 03:56:57;;;;;;;11.06;8.88;;;;;;;14.83;76.67;100215.80;451589;113;922520;-73
2021/10/14 03:58:00;;;;;;;9.46;8.59;;;;;;;14.85;76.63;100221.85;451261;113;930523;-73
2021/10/14 03:59:04;;;;;;;12.66;8.98;;;;;;;14.84;76.63;100217.44;453192;115;930591;-71
2021/10/14 04:00:09;;;;;;;10.29;9.21;;;;;;;14.85;76.62;100219.94;452052;113;926754;-72
2021/10/14 04:01:12;;;;;;;10.41;9.35;;;;;;;14.86;76.58;100218.86;450224;116;922585;-72
2021/10/14 04:02:15;;;;;;;10.26;9.34;;;;;;;14.87;76.62;100215.05;454186;113;922624;-74
2021/10/14 04:03:19;;;;;;;9.89;8.99;;;;;;;14.88;76.61;100219.45;452803;114;930766;-72
2021/10/14 04:04:23;;;;;;;9.93;8.90;;;;;;;14.90;76.54;100217.27;452212;114;930557;-72
2021/10/14 04:05:27;;;;;;;9.91;9.02;;;;;;;14.90;76.49;100219.18;452383;114;922808;-72
2021/10/14 04:06:31;;;;;;;10.83;9.48;;;;;;;14.90;76.48;100225.50;454814;114;922534;-74
2021/10/14 04:07:34;;;;;;;12.46;9.61;;;;;;;14.91;76.48;100224.42;454356;114;922641;-72
2021/10/14 04:08:38;;;;;;;9.99;9.09;;;;;;;14.91;76.40;100226.34;454124;113;923036;-72
2021/10/14 04:09:41;;;;;;;9.52;8.64;;;;;;;14.91;76.36;100226.34;453782;114;930592;-73
2021/10/14 04:10:45;;;;;;;10.98;9.85;;;;;;;14.90;76.37;100220.02;454832;113;922832;-72
2021/10/14 04:11:48;;;;;;;11.87;8.88;;;;;;;14.89;76.32;100231.23;455200;115;922531;-72
2021/10/14 04:12:52;;;;;;;9.34;8.56;;;;;;;14.89;76.32;100234.81;454501;116;923011;-71
2021/10/14 04:13:55;;;;;;;9.23;8.48;;;;;;;14.88;76.35;100226.86;455057;115;927268;-71
2021/10/14 04:14:59;;;;;;;10.25;8.69;;;;;;;14.88;76.38;100232.34;454562;115;922772;-72
2021/10/14 04:16:02;;;;;;;10.84;9.24;;;;;;;14.88;76.37;100229.60;455878;113;922527;-72
2021/10/14 04:17:06;;;;;;;10.98;9.73;;;;;;;14.87;76.37;100233.42;455957;115;930569;-72
2021/10/14 04:18:10;;;;;;;10.72;9.59;;;;;;;14.87;76.40;100225.19;456181;114;930985;-73
2021/10/14 04:19:13;;;;;;;9.49;8.54;;;;;;;14.87;76.42;100226.02;452920;114;923110;-73
2021/10/14 04:20:17;;;;;;;13.76;10.44;;;;;;;14.89;76.41;100233.98;452288;114;930739;-74
2021/10/14 04:21:21;;;;;;;11.08;8.61;;;;;;;14.88;76.41;100230.44;452840;114;922974;-75
2021/10/14 04:22:27;;;;;;;9.76;8.96;;;;;;;14.89;76.45;100231.23;452079;114;930591;-73
2021/10/14 04:23:32;;;;;;;8.60;7.85;;;;;;;14.89;76.46;100236.73;453483;114;922653;-70
2021/10/14 04:24:35;;;;;;;11.45;9.61;;;;;;;14.89;76.43;100239.47;453067;114;922866;-71
2021/10/14 04:25:39;;;;;;;10.38;9.35;;;;;;;14.88;76.44;100241.41;452617;113;922602;-71
2021/10/14 04:26:44;;;;;;;9.41;8.41;;;;;;;14.89;76.46;100243.05;453526;113;922625;-74
2021/10/14 04:27:48;;;;;;;9.87;8.50;;;;;;;14.90;76.44;100249.38;455524;114;922669;-72
2021/10/14 04:28:52;;;;;;;9.69;8.61;;;;;;;14.91;76.47;100245.55;444837;116;923300;-70
2021/10/14 04:29:56;;;;;;;9.45;8.59;;;;;;;14.90;76.44;100250.21;445211;116;922956;-74
2021/10/14 04:31:00;;;;;;;9.06;8.24;;;;;;;14.92;76.45;100258.20;454017;113;923177;-73
2021/10/14 04:32:07;;;;;;;9.06;8.21;;;;;;;14.90;76.42;100255.70;453714;113;922617;-71
2021/10/14 04:33:12;;;;;;;9.37;8.48;;;;;;;14.90;76.47;100255.70;454687;116;930528;-71
2021/10/14 04:34:17;;;;;;;8.50;7.77;;;;;;;14.92;76.50;100252.71;454451;114;923104;-70
2021/10/14 04:35:22;;;;;;;10.69;7.96;;;;;;;14.92;76.50;100263.70;455024;115;923488;-72
2021/10/14 04:36:26;;;;;;;10.02;9.05;;;;;;;14.94;76.52;100256.05;454613;113;930480;-72
2021/10/14 04:37:29;;;;;;;9.46;8.58;;;;;;;14.94;76.55;100261.55;455155;114;922603;-72
2021/10/14 04:38:33;;;;;;;9.43;8.54;;;;;;;14.96;76.53;100270.34;455123;114;922933;-73
2021/10/14 04:39:38;;;;;;;9.94;9.04;;;;;;;14.97;76.48;100264.60;447329;116;924579;-71
2021/10/14 04:40:42;;;;;;;9.93;9.12;;;;;;;15.00;76.46;100266.00;455939;114;930502;-71
2021/10/14 04:41:45;;;;;;;10.49;9.59;;;;;;;15.00;76.46;100269.58;452150;114;922518;-73
2021/10/14 04:42:49;;;;;;;9.13;8.33;;;;;;;15.01;76.43;100260.27;450529;115;922644;-73
2021/10/14 04:43:52;;;;;;;10.14;9.18;;;;;;;15.03;76.38;100269.09;452572;114;922989;-71
2021/10/14 04:44:55;;;;;;;9.21;8.51;;;;;;;15.03;76.35;100265.52;450460;113;930481;-73
2021/10/14 04:45:59;;;;;;;9.28;8.47;;;;;;;15.04;76.33;100275.42;451643;115;923054;-72
2021/10/14 04:47:04;;;;;;;9.50;8.63;;;;;;;15.05;76.36;100265.27;453175;113;922500;-74
2021/10/14 04:48:08;;;;;;;9.31;8.36;;;;;;;15.05;76.34;100271.56;453680;113;930550;-73